Terminal Aerodrome Forecast
Issued by NWS Jackson, MS

Home | Current Version | Previous Version | Text Only | Print | Product List | Glossary On
Versions: 1 2 3 4 5 6 7 8 9 10 11 12 13 14 15 16 17 18 19 20
000
FTUS44 KJAN 261757
TAFGLH
TAF
KGLH 261757Z 2618/2718 32012KT P6SM SCT020 BKN030
     FM262000 34012G21KT P6SM BKN035
     FM262300 34010KT P6SM SCT035 SCT250
     FM270800 32005KT P6SM BKN050 BKN250
     FM271500 31010KT P6SM FEW250=

USA.gov is the U.S. government's official web portal to all federal, state and local government web resources and services.